sensor_id;sensor_type;location;lat;lon;timestamp;P1;durP1;ratioP1;P2;durP2;ratioP2
20844;SDS011;10583;49.084;8.646;2023-06-24T00:00:16;6.43;;;6.43;;
20844;SDS011;10583;49.084;8.646;2023-06-24T00:02:44;6.40;;;6.40;;
20844;SDS011;10583;49.084;8.646;2023-06-24T00:05:10;6.60;;;6.60;;
20844;SDS011;10583;49.084;8.646;2023-06-24T00:07:37;5.90;;;5.90;;
20844;SDS011;10583;49.084;8.646;2023-06-24T00:10:09;6.77;;;6.77;;
20844;SDS011;10583;49.084;8.646;2023-06-24T00:12:37;7.20;;;7.20;;
20844;SDS011;10583;49.084;8.646;2023-06-24T00:15:06;7.17;;;7.17;;
20844;SDS011;10583;49.084;8.646;2023-06-24T00:17:34;7.50;;;7.50;;
20844;SDS011;10583;49.084;8.646;2023-06-24T00:20:01;6.80;;;6.80;;
20844;SDS011;10583;49.084;8.646;2023-06-24T00:22:29;7.10;;;7.10;;
20844;SDS011;10583;49.084;8.646;2023-06-24T00:24:56;7.03;;;7.03;;
20844;SDS011;10583;49.084;8.646;2023-06-24T00:27:22;7.23;;;7.23;;
20844;SDS011;10583;49.084;8.646;2023-06-24T00:29:50;6.57;;;6.57;;
20844;SDS011;10583;49.084;8.646;2023-06-24T00:32:18;6.87;;;6.87;;
20844;SDS011;10583;49.084;8.646;2023-06-24T00:34:44;6.93;;;6.93;;
20844;SDS011;10583;49.084;8.646;2023-06-24T00:37:12;7.30;;;7.30;;
20844;SDS011;10583;49.084;8.646;2023-06-24T00:39:39;6.90;;;6.90;;
20844;SDS011;10583;49.084;8.646;2023-06-24T00:42:06;6.47;;;6.47;;
20844;SDS011;10583;49.084;8.646;2023-06-24T00:44:33;6.97;;;6.97;;
20844;SDS011;10583;49.084;8.646;2023-06-24T00:46:59;7.23;;;7.23;;
20844;SDS011;10583;49.084;8.646;2023-06-24T00:49:28;6.77;;;6.77;;
20844;SDS011;10583;49.084;8.646;2023-06-24T00:51:55;7.50;;;7.50;;
20844;SDS011;10583;49.084;8.646;2023-06-24T00:54:22;7.47;;;7.47;;
20844;SDS011;10583;49.084;8.646;2023-06-24T00:56:56;7.30;;;7.30;;
20844;SDS011;10583;49.084;8.646;2023-06-24T00:59:26;7.10;;;7.10;;
20844;SDS011;10583;49.084;8.646;2023-06-24T01:01:55;6.90;;;6.90;;
20844;SDS011;10583;49.084;8.646;2023-06-24T01:04:22;7.63;;;7.63;;
20844;SDS011;10583;49.084;8.646;2023-06-24T01:06:51;7.10;;;7.10;;
20844;SDS011;10583;49.084;8.646;2023-06-24T01:09:18;7.07;;;7.07;;
20844;SDS011;10583;49.084;8.646;2023-06-24T01:11:46;6.40;;;6.40;;
20844;SDS011;10583;49.084;8.646;2023-06-24T01:14:13;6.47;;;6.47;;
20844;SDS011;10583;49.084;8.646;2023-06-24T01:16:48;7.43;;;7.43;;
20844;SDS011;10583;49.084;8.646;2023-06-24T01:19:30;7.00;;;7.00;;
20844;SDS011;10583;49.084;8.646;2023-06-24T01:22:08;7.00;;;7.00;;
20844;SDS011;10583;49.084;8.646;2023-06-24T01:24:57;7.30;;;7.30;;
20844;SDS011;10583;49.084;8.646;2023-06-24T01:27:52;6.70;;;6.70;;
20844;SDS011;10583;49.084;8.646;2023-06-24T01:30:48;7.10;;;7.10;;
20844;SDS011;10583;49.084;8.646;2023-06-24T01:33:26;7.13;;;7.13;;
20844;SDS011;10583;49.084;8.646;2023-06-24T01:36:01;6.80;;;6.80;;
20844;SDS011;10583;49.084;8.646;2023-06-24T01:38:31;7.00;;;7.00;;
20844;SDS011;10583;49.084;8.646;2023-06-24T01:41:04;7.33;;;7.33;;
20844;SDS011;10583;49.084;8.646;2023-06-24T01:43:32;6.73;;;6.73;;
20844;SDS011;10583;49.084;8.646;2023-06-24T01:46:01;6.67;;;6.67;;
20844;SDS011;10583;49.084;8.646;2023-06-24T01:48:34;6.07;;;6.07;;
20844;SDS011;10583;49.084;8.646;2023-06-24T01:51:06;7.07;;;7.07;;
20844;SDS011;10583;49.084;8.646;2023-06-24T01:53:37;7.07;;;7.07;;
20844;SDS011;10583;49.084;8.646;2023-06-24T01:56:08;6.77;;;6.77;;
20844;SDS011;10583;49.084;8.646;2023-06-24T01:58:38;6.70;;;6.70;;
20844;SDS011;10583;49.084;8.646;2023-06-24T02:01:07;6.50;;;6.50;;
20844;SDS011;10583;49.084;8.646;2023-06-24T02:03:35;6.40;;;6.40;;
20844;SDS011;10583;49.084;8.646;2023-06-24T02:06:03;7.33;;;7.33;;
20844;SDS011;10583;49.084;8.646;2023-06-24T02:08:34;7.13;;;7.13;;
20844;SDS011;10583;49.084;8.646;2023-06-24T02:11:03;6.67;;;6.67;;
20844;SDS011;10583;49.084;8.646;2023-06-24T02:13:31;7.30;;;7.30;;
20844;SDS011;10583;49.084;8.646;2023-06-24T02:16:00;7.33;;;7.23;;
20844;SDS011;10583;49.084;8.646;2023-06-24T02:18:28;7.63;;;7.53;;
20844;SDS011;10583;49.084;8.646;2023-06-24T02:20:56;6.80;;;6.70;;
20844;SDS011;10583;49.084;8.646;2023-06-24T02:23:25;7.03;;;6.93;;
20844;SDS011;10583;49.084;8.646;2023-06-24T02:25:53;6.77;;;6.77;;
20844;SDS011;10583;49.084;8.646;2023-06-24T02:28:20;6.47;;;6.47;;
20844;SDS011;10583;49.084;8.646;2023-06-24T02:30:47;6.80;;;6.80;;
20844;SDS011;10583;49.084;8.646;2023-06-24T02:33:14;6.63;;;6.63;;
20844;SDS011;10583;49.084;8.646;2023-06-24T02:35:41;7.37;;;7.27;;
20844;SDS011;10583;49.084;8.646;2023-06-24T02:38:09;6.60;;;6.60;;
20844;SDS011;10583;49.084;8.646;2023-06-24T02:40:36;6.47;;;6.47;;
20844;SDS011;10583;49.084;8.646;2023-06-24T02:43:03;6.77;;;6.77;;
20844;SDS011;10583;49.084;8.646;2023-06-24T02:45:29;7.27;;;7.23;;
20844;SDS011;10583;49.084;8.646;2023-06-24T02:47:56;7.27;;;7.27;;
20844;SDS011;10583;49.084;8.646;2023-06-24T02:50:24;6.23;;;6.23;;
20844;SDS011;10583;49.084;8.646;2023-06-24T02:52:53;6.60;;;6.60;;
20844;SDS011;10583;49.084;8.646;2023-06-24T02:55:22;7.20;;;7.13;;
20844;SDS011;10583;49.084;8.646;2023-06-24T02:57:48;6.70;;;6.60;;
20844;SDS011;10583;49.084;8.646;2023-06-24T03:00:16;6.90;;;6.80;;
20844;SDS011;10583;49.084;8.646;2023-06-24T03:02:44;6.80;;;6.73;;
20844;SDS011;10583;49.084;8.646;2023-06-24T03:05:12;8.00;;;7.90;;
20844;SDS011;10583;49.084;8.646;2023-06-24T03:07:39;7.10;;;7.03;;
20844;SDS011;10583;49.084;8.646;2023-06-24T03:10:07;7.23;;;7.13;;
20844;SDS011;10583;49.084;8.646;2023-06-24T03:12:37;6.27;;;6.27;;
20844;SDS011;10583;49.084;8.646;2023-06-24T03:15:04;6.63;;;6.53;;
20844;SDS011;10583;49.084;8.646;2023-06-24T03:17:31;6.30;;;6.30;;
20844;SDS011;10583;49.084;8.646;2023-06-24T03:19:58;6.83;;;6.77;;
20844;SDS011;10583;49.084;8.646;2023-06-24T03:22:24;6.20;;;6.20;;
20844;SDS011;10583;49.084;8.646;2023-06-24T03:24:51;6.67;;;6.67;;
20844;SDS011;10583;49.084;8.646;2023-06-24T03:27:18;6.43;;;6.37;;
20844;SDS011;10583;49.084;8.646;2023-06-24T03:29:46;6.70;;;6.63;;
20844;SDS011;10583;49.084;8.646;2023-06-24T03:32:13;6.57;;;6.50;;
20844;SDS011;10583;49.084;8.646;2023-06-24T03:34:40;6.60;;;6.60;;
20844;SDS011;10583;49.084;8.646;2023-06-24T03:37:07;6.67;;;6.67;;
20844;SDS011;10583;49.084;8.646;2023-06-24T03:39:34;7.63;;;7.53;;
20844;SDS011;10583;49.084;8.646;2023-06-24T03:42:00;6.93;;;6.83;;
20844;SDS011;10583;49.084;8.646;2023-06-24T03:44:27;7.10;;;7.00;;
20844;SDS011;10583;49.084;8.646;2023-06-24T03:46:55;7.50;;;7.40;;
20844;SDS011;10583;49.084;8.646;2023-06-24T03:49:22;7.47;;;7.37;;
20844;SDS011;10583;49.084;8.646;2023-06-24T03:51:48;7.00;;;6.90;;
20844;SDS011;10583;49.084;8.646;2023-06-24T03:54:15;6.50;;;6.50;;
20844;SDS011;10583;49.084;8.646;2023-06-24T03:56:41;6.90;;;6.83;;
20844;SDS011;10583;49.084;8.646;2023-06-24T03:59:08;6.50;;;6.50;;
20844;SDS011;10583;49.084;8.646;2023-06-24T04:01:35;6.47;;;6.47;;
20844;SDS011;10583;49.084;8.646;2023-06-24T04:04:03;6.70;;;6.70;;
20844;SDS011;10583;49.084;8.646;2023-06-24T04:06:30;6.80;;;6.80;;
20844;SDS011;10583;49.084;8.646;2023-06-24T04:08:57;6.43;;;6.43;;
20844;SDS011;10583;49.084;8.646;2023-06-24T04:11:23;7.40;;;7.40;;
20844;SDS011;10583;49.084;8.646;2023-06-24T04:13:50;7.27;;;7.23;;
20844;SDS011;10583;49.084;8.646;2023-06-24T04:16:17;7.27;;;7.23;;
20844;SDS011;10583;49.084;8.646;2023-06-24T04:18:43;6.77;;;6.67;;
20844;SDS011;10583;49.084;8.646;2023-06-24T04:21:11;7.00;;;7.00;;
20844;SDS011;10583;49.084;8.646;2023-06-24T04:23:39;7.90;;;7.80;;
20844;SDS011;10583;49.084;8.646;2023-06-24T04:26:06;7.10;;;7.10;;
20844;SDS011;10583;49.084;8.646;2023-06-24T04:28:32;7.23;;;7.13;;
20844;SDS011;10583;49.084;8.646;2023-06-24T04:30:59;7.70;;;7.67;;
20844;SDS011;10583;49.084;8.646;2023-06-24T04:33:26;7.67;;;7.67;;
20844;SDS011;10583;49.084;8.646;2023-06-24T04:35:53;6.93;;;6.93;;
20844;SDS011;10583;49.084;8.646;2023-06-24T04:38:21;6.67;;;6.67;;
20844;SDS011;10583;49.084;8.646;2023-06-24T04:40:48;7.57;;;7.47;;
20844;SDS011;10583;49.084;8.646;2023-06-24T04:43:14;7.23;;;7.13;;
20844;SDS011;10583;49.084;8.646;2023-06-24T04:45:41;7.00;;;6.90;;
20844;SDS011;10583;49.084;8.646;2023-06-24T04:48:08;7.37;;;7.27;;
20844;SDS011;10583;49.084;8.646;2023-06-24T04:50:35;7.30;;;7.20;;
20844;SDS011;10583;49.084;8.646;2023-06-24T04:53:01;6.83;;;6.73;;
20844;SDS011;10583;49.084;8.646;2023-06-24T04:55:29;6.60;;;6.50;;
20844;SDS011;10583;49.084;8.646;2023-06-24T04:57:56;6.97;;;6.97;;
20844;SDS011;10583;49.084;8.646;2023-06-24T05:00:23;7.10;;;7.00;;
20844;SDS011;10583;49.084;8.646;2023-06-24T05:02:50;6.83;;;6.80;;
20844;SDS011;10583;49.084;8.646;2023-06-24T05:05:17;7.67;;;7.57;;
20844;SDS011;10583;49.084;8.646;2023-06-24T05:07:45;7.60;;;7.60;;
20844;SDS011;10583;49.084;8.646;2023-06-24T05:10:12;6.90;;;6.90;;
20844;SDS011;10583;49.084;8.646;2023-06-24T05:12:40;7.43;;;7.43;;
20844;SDS011;10583;49.084;8.646;2023-06-24T05:15:07;7.13;;;7.03;;
20844;SDS011;10583;49.084;8.646;2023-06-24T05:17:34;7.17;;;7.17;;
20844;SDS011;10583;49.084;8.646;2023-06-24T05:20:01;6.90;;;6.90;;
20844;SDS011;10583;49.084;8.646;2023-06-24T05:22:28;7.13;;;7.13;;
20844;SDS011;10583;49.084;8.646;2023-06-24T05:24:55;6.77;;;6.77;;
20844;SDS011;10583;49.084;8.646;2023-06-24T05:27:22;7.13;;;7.13;;
20844;SDS011;10583;49.084;8.646;2023-06-24T05:29:50;7.13;;;7.13;;
20844;SDS011;10583;49.084;8.646;2023-06-24T05:32:16;7.30;;;7.30;;
20844;SDS011;10583;49.084;8.646;2023-06-24T05:34:45;7.00;;;7.00;;
20844;SDS011;10583;49.084;8.646;2023-06-24T05:37:12;7.90;;;7.90;;
20844;SDS011;10583;49.084;8.646;2023-06-24T05:39:38;6.43;;;6.43;;
20844;SDS011;10583;49.084;8.646;2023-06-24T05:42:05;7.37;;;7.37;;
20844;SDS011;10583;49.084;8.646;2023-06-24T05:44:32;7.13;;;7.13;;
20844;SDS011;10583;49.084;8.646;2023-06-24T05:47:00;7.00;;;7.00;;
20844;SDS011;10583;49.084;8.646;2023-06-24T05:49:27;6.63;;;6.63;;
20844;SDS011;10583;49.084;8.646;2023-06-24T05:51:54;7.93;;;7.93;;
20844;SDS011;10583;49.084;8.646;2023-06-24T05:54:20;7.03;;;7.03;;
20844;SDS011;10583;49.084;8.646;2023-06-24T05:56:47;6.37;;;6.37;;
20844;SDS011;10583;49.084;8.646;2023-06-24T05:59:14;6.33;;;6.33;;
20844;SDS011;10583;49.084;8.646;2023-06-24T06:01:40;6.57;;;6.57;;
20844;SDS011;10583;49.084;8.646;2023-06-24T06:04:08;6.50;;;6.50;;
20844;SDS011;10583;49.084;8.646;2023-06-24T06:06:35;6.63;;;6.63;;
20844;SDS011;10583;49.084;8.646;2023-06-24T06:09:02;7.30;;;7.30;;
20844;SDS011;10583;49.084;8.646;2023-06-24T06:11:28;6.50;;;6.50;;
20844;SDS011;10583;49.084;8.646;2023-06-24T06:13:55;6.30;;;6.30;;
20844;SDS011;10583;49.084;8.646;2023-06-24T06:16:22;5.80;;;5.80;;
20844;SDS011;10583;49.084;8.646;2023-06-24T06:18:50;5.70;;;5.70;;
20844;SDS011;10583;49.084;8.646;2023-06-24T06:21:18;5.73;;;5.73;;
20844;SDS011;10583;49.084;8.646;2023-06-24T06:23:45;5.57;;;5.57;;
20844;SDS011;10583;49.084;8.646;2023-06-24T06:26:11;5.33;;;5.33;;
20844;SDS011;10583;49.084;8.646;2023-06-24T06:28:38;5.40;;;5.40;;
20844;SDS011;10583;49.084;8.646;2023-06-24T06:31:05;6.23;;;6.23;;
20844;SDS011;10583;49.084;8.646;2023-06-24T06:33:32;5.30;;;5.30;;
20844;SDS011;10583;49.084;8.646;2023-06-24T06:35:59;5.77;;;5.77;;
20844;SDS011;10583;49.084;8.646;2023-06-24T06:38:27;5.88;;;5.88;;
20844;SDS011;10583;49.084;8.646;2023-06-24T06:40:54;5.50;;;5.50;;
20844;SDS011;10583;49.084;8.646;2023-06-24T06:43:21;5.35;;;5.35;;
20844;SDS011;10583;49.084;8.646;2023-06-24T06:45:47;4.90;;;4.90;;
20844;SDS011;10583;49.084;8.646;2023-06-24T06:48:14;5.28;;;5.28;;
20844;SDS011;10583;49.084;8.646;2023-06-24T06:50:41;5.55;;;5.55;;
20844;SDS011;10583;49.084;8.646;2023-06-24T06:53:07;5.80;;;5.80;;
20844;SDS011;10583;49.084;8.646;2023-06-24T06:55:35;5.15;;;5.15;;
20844;SDS011;10583;49.084;8.646;2023-06-24T06:58:06;5.10;;;5.10;;
20844;SDS011;10583;49.084;8.646;2023-06-24T07:00:33;5.57;;;5.57;;
20844;SDS011;10583;49.084;8.646;2023-06-24T07:03:00;5.18;;;5.18;;
20844;SDS011;10583;49.084;8.646;2023-06-24T07:05:27;4.80;;;4.80;;
20844;SDS011;10583;49.084;8.646;2023-06-24T07:07:53;4.80;;;4.80;;
20844;SDS011;10583;49.084;8.646;2023-06-24T07:10:20;4.97;;;4.97;;
20844;SDS011;10583;49.084;8.646;2023-06-24T07:12:48;11.35;;;10.60;;
20844;SDS011;10583;49.084;8.646;2023-06-24T07:15:16;4.82;;;4.82;;
20844;SDS011;10583;49.084;8.646;2023-06-24T07:17:44;4.80;;;4.80;;
20844;SDS011;10583;49.084;8.646;2023-06-24T07:20:11;4.90;;;4.90;;
20844;SDS011;10583;49.084;8.646;2023-06-24T07:22:37;4.43;;;4.43;;
20844;SDS011;10583;49.084;8.646;2023-06-24T07:25:04;4.47;;;4.47;;
20844;SDS011;10583;49.084;8.646;2023-06-24T07:27:31;4.93;;;4.93;;
20844;SDS011;10583;49.084;8.646;2023-06-24T07:29:59;4.65;;;4.65;;
20844;SDS011;10583;49.084;8.646;2023-06-24T07:32:26;5.00;;;5.00;;
20844;SDS011;10583;49.084;8.646;2023-06-24T07:34:52;4.40;;;4.40;;
20844;SDS011;10583;49.084;8.646;2023-06-24T07:37:19;4.60;;;4.60;;
20844;SDS011;10583;49.084;8.646;2023-06-24T07:39:46;4.72;;;4.72;;
20844;SDS011;10583;49.084;8.646;2023-06-24T07:42:12;4.60;;;4.60;;
20844;SDS011;10583;49.084;8.646;2023-06-24T07:44:43;4.68;;;4.68;;
20844;SDS011;10583;49.084;8.646;2023-06-24T07:47:11;4.03;;;4.03;;
20844;SDS011;10583;49.084;8.646;2023-06-24T07:49:38;4.18;;;4.18;;
20844;SDS011;10583;49.084;8.646;2023-06-24T07:52:05;4.38;;;4.38;;
20844;SDS011;10583;49.084;8.646;2023-06-24T07:54:32;4.10;;;4.10;;
20844;SDS011;10583;49.084;8.646;2023-06-24T07:56:59;4.47;;;4.47;;
20844;SDS011;10583;49.084;8.646;2023-06-24T07:59:26;5.00;;;5.00;;
20844;SDS011;10583;49.084;8.646;2023-06-24T08:01:53;9.48;;;9.27;;
20844;SDS011;10583;49.084;8.646;2023-06-24T08:04:21;8.23;;;8.02;;
20844;SDS011;10583;49.084;8.646;2023-06-24T08:06:48;4.97;;;4.97;;
20844;SDS011;10583;49.084;8.646;2023-06-24T08:09:15;4.63;;;4.63;;
20844;SDS011;10583;49.084;8.646;2023-06-24T08:11:42;4.68;;;4.68;;
20844;SDS011;10583;49.084;8.646;2023-06-24T08:14:09;4.45;;;4.45;;
20844;SDS011;10583;49.084;8.646;2023-06-24T08:16:35;3.70;;;3.70;;
20844;SDS011;10583;49.084;8.646;2023-06-24T08:19:03;4.22;;;4.22;;
20844;SDS011;10583;49.084;8.646;2023-06-24T08:21:31;3.70;;;3.70;;
20844;SDS011;10583;49.084;8.646;2023-06-24T08:23:59;3.45;;;3.45;;
20844;SDS011;10583;49.084;8.646;2023-06-24T08:26:26;3.70;;;3.70;;
20844;SDS011;10583;49.084;8.646;2023-06-24T08:28:52;3.75;;;3.75;;
20844;SDS011;10583;49.084;8.646;2023-06-24T08:31:19;3.72;;;3.72;;
20844;SDS011;10583;49.084;8.646;2023-06-24T08:33:48;4.45;;;4.45;;
20844;SDS011;10583;49.084;8.646;2023-06-24T08:36:18;3.65;;;3.65;;
20844;SDS011;10583;49.084;8.646;2023-06-24T08:38:46;3.67;;;3.67;;
20844;SDS011;10583;49.084;8.646;2023-06-24T08:41:13;3.75;;;3.75;;
20844;SDS011;10583;49.084;8.646;2023-06-24T08:43:39;3.63;;;3.63;;
20844;SDS011;10583;49.084;8.646;2023-06-24T08:46:08;3.65;;;3.65;;
20844;SDS011;10583;49.084;8.646;2023-06-24T08:48:35;3.63;;;3.63;;
20844;SDS011;10583;49.084;8.646;2023-06-24T08:51:05;4.68;;;4.68;;
20844;SDS011;10583;49.084;8.646;2023-06-24T08:53:33;4.80;;;4.78;;
20844;SDS011;10583;49.084;8.646;2023-06-24T08:56:03;3.80;;;3.80;;
20844;SDS011;10583;49.084;8.646;2023-06-24T08:58:30;4.03;;;4.03;;
20844;SDS011;10583;49.084;8.646;2023-06-24T09:00:57;3.40;;;3.40;;
20844;SDS011;10583;49.084;8.646;2023-06-24T09:03:24;3.35;;;3.35;;
20844;SDS011;10583;49.084;8.646;2023-06-24T09:05:50;3.70;;;3.70;;
20844;SDS011;10583;49.084;8.646;2023-06-24T09:08:17;3.42;;;3.42;;
20844;SDS011;10583;49.084;8.646;2023-06-24T09:10:46;3.00;;;3.00;;
20844;SDS011;10583;49.084;8.646;2023-06-24T09:13:20;3.50;;;3.50;;
20844;SDS011;10583;49.084;8.646;2023-06-24T09:15:48;3.40;;;3.40;;
20844;SDS011;10583;49.084;8.646;2023-06-24T09:18:14;3.38;;;3.38;;
20844;SDS011;10583;49.084;8.646;2023-06-24T09:20:42;3.47;;;3.47;;
20844;SDS011;10583;49.084;8.646;2023-06-24T09:23:10;3.50;;;3.50;;
20844;SDS011;10583;49.084;8.646;2023-06-24T09:25:37;3.42;;;3.42;;
20844;SDS011;10583;49.084;8.646;2023-06-24T09:28:04;3.45;;;3.45;;
20844;SDS011;10583;49.084;8.646;2023-06-24T09:30:32;3.75;;;3.75;;
20844;SDS011;10583;49.084;8.646;2023-06-24T09:32:58;3.42;;;3.42;;
20844;SDS011;10583;49.084;8.646;2023-06-24T09:35:25;3.38;;;3.38;;
20844;SDS011;10583;49.084;8.646;2023-06-24T09:37:52;3.10;;;3.10;;
20844;SDS011;10583;49.084;8.646;2023-06-24T09:40:20;3.40;;;3.40;;
20844;SDS011;10583;49.084;8.646;2023-06-24T09:42:48;8.35;;;8.15;;
20844;SDS011;10583;49.084;8.646;2023-06-24T09:45:18;3.70;;;3.70;;
20844;SDS011;10583;49.084;8.646;2023-06-24T09:47:48;3.42;;;3.42;;
20844;SDS011;10583;49.084;8.646;2023-06-24T09:50:15;3.08;;;3.08;;
20844;SDS011;10583;49.084;8.646;2023-06-24T09:52:41;3.05;;;3.05;;
20844;SDS011;10583;49.084;8.646;2023-06-24T09:55:10;3.20;;;3.20;;
20844;SDS011;10583;49.084;8.646;2023-06-24T09:57:39;4.32;;;4.32;;
20844;SDS011;10583;49.084;8.646;2023-06-24T10:00:07;2.95;;;2.95;;
20844;SDS011;10583;49.084;8.646;2023-06-24T10:02:36;3.38;;;3.38;;
20844;SDS011;10583;49.084;8.646;2023-06-24T10:05:04;4.40;;;4.40;;
20844;SDS011;10583;49.084;8.646;2023-06-24T10:07:32;3.53;;;3.53;;
20844;SDS011;10583;49.084;8.646;2023-06-24T10:10:01;3.65;;;3.65;;
20844;SDS011;10583;49.084;8.646;2023-06-24T10:12:29;3.08;;;3.08;;
20844;SDS011;10583;49.084;8.646;2023-06-24T10:14:57;3.60;;;3.60;;
20844;SDS011;10583;49.084;8.646;2023-06-24T10:17:24;3.92;;;3.92;;
20844;SDS011;10583;49.084;8.646;2023-06-24T10:19:51;3.33;;;3.33;;
20844;SDS011;10583;49.084;8.646;2023-06-24T10:22:19;3.70;;;3.70;;
20844;SDS011;10583;49.084;8.646;2023-06-24T10:24:48;3.28;;;3.28;;
20844;SDS011;10583;49.084;8.646;2023-06-24T10:27:17;4.00;;;4.00;;
20844;SDS011;10583;49.084;8.646;2023-06-24T10:29:47;4.13;;;4.13;;
20844;SDS011;10583;49.084;8.646;2023-06-24T10:32:14;3.30;;;3.30;;
20844;SDS011;10583;49.084;8.646;2023-06-24T10:34:41;3.58;;;3.58;;
20844;SDS011;10583;49.084;8.646;2023-06-24T10:37:10;3.58;;;3.58;;
20844;SDS011;10583;49.084;8.646;2023-06-24T10:39:44;3.35;;;3.35;;
20844;SDS011;10583;49.084;8.646;2023-06-24T10:42:26;3.50;;;3.50;;
20844;SDS011;10583;49.084;8.646;2023-06-24T10:45:16;3.00;;;3.00;;
20844;SDS011;10583;49.084;8.646;2023-06-24T10:47:45;3.08;;;3.08;;
20844;SDS011;10583;49.084;8.646;2023-06-24T10:50:13;2.67;;;2.67;;
20844;SDS011;10583;49.084;8.646;2023-06-24T10:52:41;2.90;;;2.90;;
20844;SDS011;10583;49.084;8.646;2023-06-24T10:55:11;3.00;;;3.00;;
20844;SDS011;10583;49.084;8.646;2023-06-24T10:57:39;2.60;;;2.60;;
20844;SDS011;10583;49.084;8.646;2023-06-24T11:00:07;2.70;;;2.70;;
20844;SDS011;10583;49.084;8.646;2023-06-24T11:02:34;2.58;;;2.58;;
20844;SDS011;10583;49.084;8.646;2023-06-24T11:05:02;2.67;;;2.67;;
20844;SDS011;10583;49.084;8.646;2023-06-24T11:07:30;3.05;;;3.05;;
20844;SDS011;10583;49.084;8.646;2023-06-24T11:10:01;3.00;;;3.00;;
20844;SDS011;10583;49.084;8.646;2023-06-24T11:12:31;3.17;;;3.17;;
20844;SDS011;10583;49.084;8.646;2023-06-24T11:14:59;3.20;;;3.20;;
20844;SDS011;10583;49.084;8.646;2023-06-24T11:17:27;3.10;;;3.10;;
20844;SDS011;10583;49.084;8.646;2023-06-24T11:19:54;3.05;;;3.05;;
20844;SDS011;10583;49.084;8.646;2023-06-24T11:22:22;3.35;;;3.35;;
20844;SDS011;10583;49.084;8.646;2023-06-24T11:24:49;2.80;;;2.80;;
20844;SDS011;10583;49.084;8.646;2023-06-24T11:27:23;3.53;;;3.53;;
20844;SDS011;10583;49.084;8.646;2023-06-24T11:29:52;3.38;;;3.38;;
20844;SDS011;10583;49.084;8.646;2023-06-24T11:32:19;3.20;;;3.20;;
20844;SDS011;10583;49.084;8.646;2023-06-24T11:34:47;3.15;;;3.15;;
20844;SDS011;10583;49.084;8.646;2023-06-24T11:37:14;3.45;;;3.45;;
20844;SDS011;10583;49.084;8.646;2023-06-24T11:39:43;2.63;;;2.63;;
20844;SDS011;10583;49.084;8.646;2023-06-24T11:42:11;3.00;;;3.00;;
20844;SDS011;10583;49.084;8.646;2023-06-24T11:44:40;2.92;;;2.92;;
20844;SDS011;10583;49.084;8.646;2023-06-24T11:47:10;3.25;;;3.25;;
20844;SDS011;10583;49.084;8.646;2023-06-24T11:49:47;3.13;;;3.13;;
20844;SDS011;10583;49.084;8.646;2023-06-24T11:52:15;2.90;;;2.90;;
20844;SDS011;10583;49.084;8.646;2023-06-24T11:54:42;3.00;;;3.00;;
20844;SDS011;10583;49.084;8.646;2023-06-24T11:57:08;2.72;;;2.72;;
20844;SDS011;10583;49.084;8.646;2023-06-24T11:59:37;2.83;;;2.83;;
20844;SDS011;10583;49.084;8.646;2023-06-24T12:02:04;2.83;;;2.83;;
20844;SDS011;10583;49.084;8.646;2023-06-24T12:04:32;3.05;;;3.05;;
20844;SDS011;10583;49.084;8.646;2023-06-24T12:07:00;2.95;;;2.95;;
20844;SDS011;10583;49.084;8.646;2023-06-24T12:09:26;2.50;;;2.50;;
20844;SDS011;10583;49.084;8.646;2023-06-24T12:11:54;3.55;;;3.55;;
20844;SDS011;10583;49.084;8.646;2023-06-24T12:14:21;3.30;;;3.30;;
20844;SDS011;10583;49.084;8.646;2023-06-24T12:16:48;2.42;;;2.42;;
20844;SDS011;10583;49.084;8.646;2023-06-24T12:19:14;2.78;;;2.78;;
20844;SDS011;10583;49.084;8.646;2023-06-24T12:21:42;2.88;;;2.88;;
20844;SDS011;10583;49.084;8.646;2023-06-24T12:24:09;3.13;;;3.13;;
20844;SDS011;10583;49.084;8.646;2023-06-24T12:26:38;3.00;;;3.00;;
20844;SDS011;10583;49.084;8.646;2023-06-24T12:29:04;2.85;;;2.85;;
20844;SDS011;10583;49.084;8.646;2023-06-24T12:31:31;2.90;;;2.90;;
20844;SDS011;10583;49.084;8.646;2023-06-24T12:33:58;3.03;;;3.03;;
20844;SDS011;10583;49.084;8.646;2023-06-24T12:36:24;2.90;;;2.90;;
20844;SDS011;10583;49.084;8.646;2023-06-24T12:38:52;2.90;;;2.90;;
20844;SDS011;10583;49.084;8.646;2023-06-24T12:41:19;2.95;;;2.95;;
20844;SDS011;10583;49.084;8.646;2023-06-24T12:43:46;2.60;;;2.60;;
20844;SDS011;10583;49.084;8.646;2023-06-24T12:46:13;2.72;;;2.72;;
20844;SDS011;10583;49.084;8.646;2023-06-24T12:48:39;2.85;;;2.85;;
20844;SDS011;10583;49.084;8.646;2023-06-24T12:51:08;2.75;;;2.75;;
20844;SDS011;10583;49.084;8.646;2023-06-24T12:53:35;3.00;;;3.00;;
20844;SDS011;10583;49.084;8.646;2023-06-24T12:56:03;2.90;;;2.90;;
20844;SDS011;10583;49.084;8.646;2023-06-24T12:58:30;2.60;;;2.60;;
20844;SDS011;10583;49.084;8.646;2023-06-24T13:00:57;2.70;;;2.70;;
20844;SDS011;10583;49.084;8.646;2023-06-24T13:03:23;2.83;;;2.83;;
20844;SDS011;10583;49.084;8.646;2023-06-24T13:05:50;2.55;;;2.55;;
20844;SDS011;10583;49.084;8.646;2023-06-24T13:08:16;2.63;;;2.63;;
20844;SDS011;10583;49.084;8.646;2023-06-24T13:10:43;2.50;;;2.50;;
20844;SDS011;10583;49.084;8.646;2023-06-24T13:13:11;2.80;;;2.80;;
20844;SDS011;10583;49.084;8.646;2023-06-24T13:15:38;2.70;;;2.70;;
20844;SDS011;10583;49.084;8.646;2023-06-24T13:18:05;2.50;;;2.50;;
20844;SDS011;10583;49.084;8.646;2023-06-24T13:20:32;2.85;;;2.85;;
20844;SDS011;10583;49.084;8.646;2023-06-24T13:22:58;2.55;;;2.55;;
20844;SDS011;10583;49.084;8.646;2023-06-24T13:25:25;2.60;;;2.60;;
20844;SDS011;10583;49.084;8.646;2023-06-24T13:27:52;2.72;;;2.72;;
20844;SDS011;10583;49.084;8.646;2023-06-24T13:30:20;2.80;;;2.80;;
20844;SDS011;10583;49.084;8.646;2023-06-24T13:32:47;2.88;;;2.88;;
20844;SDS011;10583;49.084;8.646;2023-06-24T13:35:14;3.10;;;3.10;;
20844;SDS011;10583;49.084;8.646;2023-06-24T13:37:41;2.83;;;2.83;;
20844;SDS011;10583;49.084;8.646;2023-06-24T13:40:08;3.20;;;3.20;;
20844;SDS011;10583;49.084;8.646;2023-06-24T13:42:36;3.05;;;3.05;;
20844;SDS011;10583;49.084;8.646;2023-06-24T13:45:02;2.65;;;2.65;;
20844;SDS011;10583;49.084;8.646;2023-06-24T13:47:31;2.67;;;2.67;;
20844;SDS011;10583;49.084;8.646;2023-06-24T13:49:58;2.80;;;2.80;;
20844;SDS011;10583;49.084;8.646;2023-06-24T13:52:25;3.10;;;3.10;;
20844;SDS011;10583;49.084;8.646;2023-06-24T13:54:51;2.63;;;2.63;;
20844;SDS011;10583;49.084;8.646;2023-06-24T13:57:18;2.92;;;2.92;;
20844;SDS011;10583;49.084;8.646;2023-06-24T13:59:45;2.58;;;2.58;;
20844;SDS011;10583;49.084;8.646;2023-06-24T14:02:12;2.72;;;2.72;;
20844;SDS011;10583;49.084;8.646;2023-06-24T14:04:40;2.80;;;2.80;;
20844;SDS011;10583;49.084;8.646;2023-06-24T14:07:07;2.42;;;2.42;;
20844;SDS011;10583;49.084;8.646;2023-06-24T14:09:34;2.83;;;2.83;;
20844;SDS011;10583;49.084;8.646;2023-06-24T14:12:00;2.67;;;2.67;;
20844;SDS011;10583;49.084;8.646;2023-06-24T14:14:27;3.10;;;3.10;;
20844;SDS011;10583;49.084;8.646;2023-06-24T14:16:54;2.78;;;2.78;;
20844;SDS011;10583;49.084;8.646;2023-06-24T14:19:21;2.95;;;2.95;;
20844;SDS011;10583;49.084;8.646;2023-06-24T14:21:49;2.63;;;2.63;;
20844;SDS011;10583;49.084;8.646;2023-06-24T14:24:15;2.85;;;2.85;;
20844;SDS011;10583;49.084;8.646;2023-06-24T14:26:42;3.30;;;3.30;;
20844;SDS011;10583;49.084;8.646;2023-06-24T14:29:09;2.60;;;2.60;;
20844;SDS011;10583;49.084;8.646;2023-06-24T14:31:36;2.90;;;2.90;;
20844;SDS011;10583;49.084;8.646;2023-06-24T14:34:02;2.90;;;2.90;;
20844;SDS011;10583;49.084;8.646;2023-06-24T14:36:29;2.95;;;2.95;;
20844;SDS011;10583;49.084;8.646;2023-06-24T14:38:57;2.75;;;2.75;;
20844;SDS011;10583;49.084;8.646;2023-06-24T14:41:24;2.88;;;2.88;;
20844;SDS011;10583;49.084;8.646;2023-06-24T14:43:50;2.70;;;2.70;;
20844;SDS011;10583;49.084;8.646;2023-06-24T14:46:17;3.17;;;3.17;;
20844;SDS011;10583;49.084;8.646;2023-06-24T14:48:44;3.13;;;3.13;;
20844;SDS011;10583;49.084;8.646;2023-06-24T14:51:10;2.72;;;2.72;;